createdAt,value
2023-10-26T00:01:25.697Z,93.32
2023-10-26T00:04:26.761Z,88.20
2023-10-26T00:07:02.320Z,92.57
2023-10-26T00:09:29.443Z,85.55
2023-10-26T00:11:56.469Z,72.18
2023-10-26T00:14:23.949Z,74.45
2023-10-26T00:16:51.186Z,77.13
2023-10-26T00:19:18.280Z,67.45
2023-10-26T00:21:45.697Z,64.13
2023-10-26T00:24:13.682Z,68.40
2023-10-26T00:26:42.207Z,71.53
2023-10-26T00:29:29.750Z,65.93
2023-10-26T00:32:30.788Z,63.05
2023-10-26T00:35:12.231Z,62.85
2023-10-26T00:37:40.029Z,83.68
2023-10-26T00:40:07.686Z,76.55
2023-10-26T00:42:35.166Z,68.43
2023-10-26T00:45:02.240Z,70.10
2023-10-26T00:47:30.039Z,53.75
2023-10-26T00:49:57.314Z,64.40
2023-10-26T00:52:44.815Z,68.28
2023-10-26T00:55:26.088Z,76.65
2023-10-26T00:57:54.311Z,60.85
2023-10-26T01:00:41.711Z,76.43
2023-10-26T01:03:41.886Z,67.18
2023-10-26T01:06:10.018Z,74.13
2023-10-26T01:08:37.224Z,85.88
2023-10-26T01:11:04.928Z,71.22
2023-10-26T01:13:33.156Z,93.97
2023-10-26T01:16:00.784Z,96.68
2023-10-26T01:18:27.909Z,85.82
2023-10-26T01:20:55.892Z,98.25
2023-10-26T01:23:23.129Z,82.75
2023-10-26T01:25:55.811Z,85.32
2023-10-26T01:28:24.836Z,99.40
2023-10-26T01:31:11.761Z,85.45
2023-10-26T01:33:52.407Z,87.47
2023-10-26T01:36:19.462Z,92.93
2023-10-26T01:38:46.548Z,101.20
2023-10-26T01:41:13.472Z,104.57
2023-10-26T01:43:40.450Z,96.18
2023-10-26T01:46:27.792Z,100.63
2023-10-26T01:49:28.802Z,104.60
2023-10-26T01:52:29.738Z,109.43
2023-10-26T01:55:19.105Z,116.95
2023-10-26T01:57:46.205Z,125.60
2023-10-26T02:00:26.865Z,128.27
2023-10-26T02:03:27.958Z,123.95
2023-10-26T02:06:07.319Z,104.97
2023-10-26T02:08:34.679Z,108.40
2023-10-26T02:11:01.613Z,120.07
2023-10-26T02:13:28.857Z,125.53
2023-10-26T02:15:55.900Z,119.22
2023-10-26T02:18:23.013Z,128.80
2023-10-26T02:20:50.362Z,130.85
2023-10-26T02:23:37.819Z,140.57
2023-10-26T02:26:18.948Z,163.90
2023-10-26T02:29:05.764Z,153.75
2023-10-26T02:32:07.137Z,164.38
2023-10-26T02:35:07.968Z,173.35
2023-10-26T02:37:49.522Z,154.43
2023-10-26T02:40:16.501Z,157.43
2023-10-26T02:42:43.618Z,147.18
2023-10-26T02:45:10.914Z,167.35
2023-10-26T02:47:39.242Z,149.18
2023-10-26T02:50:07.685Z,156.40
2023-10-26T02:52:54.762Z,140.23
2023-10-26T02:55:35.418Z,154.95
2023-10-26T02:58:02.610Z,167.60
2023-10-26T03:00:49.876Z,166.63
2023-10-26T03:03:38.900Z,135.55
2023-10-26T03:06:06.472Z,152.82
2023-10-26T03:08:33.577Z,152.65
2023-10-26T03:11:00.715Z,146.13
2023-10-26T03:13:28.033Z,158.32
2023-10-26T03:15:55.452Z,141.93
2023-10-26T03:18:23.030Z,152.35
2023-10-26T03:20:50.177Z,168.63
2023-10-26T03:23:17.552Z,192.15
2023-10-26T03:25:44.592Z,180.77
2023-10-26T03:28:11.685Z,195.25
2023-10-26T03:30:59.016Z,188.55
2023-10-26T03:33:40.830Z,201.02
2023-10-26T03:36:17.790Z,191.70
2023-10-26T03:38:46.188Z,175.82
2023-10-26T03:41:13.989Z,178.05
2023-10-26T03:43:41.279Z,183.15
2023-10-26T03:46:08.848Z,193.40
2023-10-26T03:48:36.783Z,187.52
2023-10-26T03:51:24.301Z,190.65
2023-10-26T03:54:25.116Z,208.25
2023-10-26T03:57:07.464Z,211.75
2023-10-26T03:59:54.933Z,216.77
2023-10-26T04:03:06.320Z,208.27
2023-10-26T04:05:46.772Z,211.82
2023-10-26T04:08:14.105Z,213.75
2023-10-26T04:10:43.598Z,214.48
2023-10-26T04:13:10.900Z,205.13
2023-10-26T04:15:38.003Z,204.45
2023-10-26T04:18:07.397Z,202.55
2023-10-26T04:20:34.950Z,202.27
2023-10-26T04:23:02.136Z,198.20
2023-10-26T04:25:42.106Z,203.07
2023-10-26T04:28:17.546Z,204.02
2023-10-26T04:31:04.882Z,211.07
2023-10-26T04:33:45.543Z,183.25
2023-10-26T04:36:12.734Z,202.80
2023-10-26T04:38:40.537Z,220.55
2023-10-26T04:41:07.637Z,212.95
2023-10-26T04:43:35.150Z,206.15
2023-10-26T04:46:02.328Z,198.85
2023-10-26T04:48:30.229Z,198.80
2023-10-26T04:51:18.003Z,178.93
2023-10-26T04:54:19.017Z,195.35
2023-10-26T04:56:59.465Z,182.77
2023-10-26T04:59:46.879Z,190.40
2023-10-26T05:02:48.290Z,210.80
2023-10-26T05:05:28.484Z,199.70
2023-10-26T05:07:55.665Z,202.30
2023-10-26T05:10:42.875Z,204.15
2023-10-26T05:13:43.986Z,180.05
2023-10-26T05:16:45.099Z,208.50
2023-10-26T05:19:25.552Z,178.40
2023-10-26T05:21:52.790Z,192.02
2023-10-26T05:24:19.723Z,201.98
2023-10-26T05:26:47.139Z,190.90
2023-10-26T05:29:33.916Z,191.35
2023-10-26T05:32:34.961Z,172.25
2023-10-26T05:35:15.796Z,172.43
2023-10-26T05:37:42.898Z,185.85
2023-10-26T05:40:10.503Z,174.57
2023-10-26T05:42:58.318Z,178.55
2023-10-26T05:45:41.379Z,171.48
2023-10-26T05:48:10.973Z,161.98
2023-10-26T05:50:57.876Z,172.40
2023-10-26T05:53:58.877Z,158.25
2023-10-26T05:57:00.363Z,164.20
2023-10-26T06:00:00.923Z,172.88
2023-10-26T06:03:06.014Z,168.35
2023-10-26T06:05:46.460Z,164.80
2023-10-26T06:08:13.590Z,174.18
2023-10-26T06:10:41.426Z,164.60
2023-10-26T06:13:11.960Z,171.15
2023-10-26T06:15:38.962Z,171.35
2023-10-26T06:18:06.225Z,177.63
2023-10-26T06:20:52.917Z,179.02
2023-10-26T06:23:34.627Z,171.20
2023-10-26T06:26:03.238Z,173.15
2023-10-26T06:28:30.541Z,168.50
2023-10-26T06:31:24.970Z,176.00
2023-10-26T06:34:05.561Z,175.30
2023-10-26T06:36:32.623Z,154.85
2023-10-26T06:39:00.902Z,145.85
2023-10-26T06:41:48.129Z,157.70
2023-10-26T06:44:49.978Z,149.80
2023-10-26T06:47:31.185Z,149.30
2023-10-26T06:49:58.109Z,135.77
2023-10-26T06:52:44.940Z,141.57
2023-10-26T06:55:30.734Z,129.90
2023-10-26T06:57:58.535Z,133.20
2023-10-26T07:00:52.107Z,142.10
2023-10-26T07:03:40.907Z,123.22
2023-10-26T07:06:08.206Z,128.75
2023-10-26T07:08:35.566Z,119.68
2023-10-26T07:11:22.953Z,131.20
2023-10-26T07:14:23.945Z,115.50
2023-10-26T07:17:25.025Z,112.00
2023-10-26T07:20:25.957Z,112.82
2023-10-26T07:23:06.504Z,118.82
2023-10-26T07:25:37.184Z,116.13
2023-10-26T07:28:04.446Z,112.18
2023-10-26T07:30:59.126Z,108.15
2023-10-26T07:33:39.596Z,109.82
2023-10-26T07:36:08.170Z,109.38
2023-10-26T07:38:37.825Z,99.55
2023-10-26T07:41:18.442Z,102.50
2023-10-26T07:44:19.719Z,102.00
2023-10-26T07:46:46.629Z,119.60
2023-10-26T07:49:13.627Z,108.70
2023-10-26T07:52:00.973Z,122.55
2023-10-26T07:55:02.111Z,122.63
2023-10-26T07:58:03.063Z,122.50
2023-10-26T08:01:04.130Z,125.03
2023-10-26T08:03:46.007Z,124.22
2023-10-26T08:06:12.945Z,119.85
2023-10-26T08:08:39.978Z,136.38
2023-10-26T08:11:14.914Z,133.40
2023-10-26T08:13:42.320Z,130.48
2023-10-26T08:16:40.716Z,138.75
2023-10-26T08:18:56.438Z,143.55
2023-10-26T08:21:23.441Z,130.00
2023-10-26T08:23:50.852Z,124.80
2023-10-26T08:26:17.703Z,108.07
2023-10-26T08:29:13.708Z,105.43
2023-10-26T08:32:17.161Z,111.93
2023-10-26T08:34:57.656Z,106.75
2023-10-26T08:37:27.064Z,106.40
2023-10-26T08:39:54.854Z,105.95
2023-10-26T08:42:21.909Z,110.53
2023-10-26T08:44:49.779Z,106.32
2023-10-26T08:47:21.219Z,98.55
2023-10-26T08:50:08.172Z,101.20
2023-10-26T08:53:14.089Z,97.55
2023-10-26T08:55:57.892Z,92.22
2023-10-26T08:58:24.988Z,104.03
2023-10-26T09:01:05.848Z,110.55
2023-10-26T09:03:46.911Z,97.40
2023-10-26T09:06:14.091Z,108.38
2023-10-26T09:08:41.103Z,101.82
2023-10-26T09:11:23.788Z,119.90
2023-10-26T09:13:51.591Z,105.32
2023-10-26T09:16:18.677Z,102.20
2023-10-26T09:18:51.348Z,119.93
2023-10-26T09:21:18.829Z,106.85
2023-10-26T09:23:46.595Z,100.90
2023-10-26T09:26:14.662Z,98.43
2023-10-26T09:29:11.012Z,107.55
2023-10-26T09:32:12.139Z,101.97
2023-10-26T09:34:52.617Z,118.25
2023-10-26T09:37:19.626Z,114.10
2023-10-26T09:40:14.727Z,101.53
2023-10-26T09:43:17.024Z,106.55
2023-10-26T09:45:56.729Z,98.10
2023-10-26T09:48:26.300Z,95.38
2023-10-26T09:51:13.091Z,88.07
2023-10-26T09:54:12.171Z,85.60
2023-10-26T09:56:42.231Z,84.85
2023-10-26T09:59:29.222Z,100.90
2023-10-26T10:02:34.082Z,106.13
2023-10-26T10:08:00.231Z,103.85
2023-10-26T10:10:27.224Z,104.90
2023-10-26T10:12:54.571Z,102.47
2023-10-26T10:15:44.420Z,99.97
2023-10-26T10:18:12.216Z,100.45
2023-10-26T10:20:41.938Z,118.10
2023-10-26T10:23:09.955Z,102.97
2023-10-26T10:25:52.408Z,99.88
2023-10-26T10:28:19.975Z,93.25
2023-10-26T10:31:10.058Z,98.95
2023-10-26T10:34:02.105Z,89.95
2023-10-26T10:36:29.348Z,90.25
2023-10-26T10:39:23.910Z,87.95
2023-10-26T10:41:51.958Z,88.43
2023-10-26T10:44:21.392Z,94.95
2023-10-26T10:46:49.509Z,94.38
2023-10-26T10:49:40.412Z,76.25
2023-10-26T10:52:41.250Z,82.95
2023-10-26T10:55:38.732Z,79.65
2023-10-26T10:58:06.136Z,76.22
2023-10-26T11:01:01.213Z,81.80
2023-10-26T11:03:42.497Z,83.70
2023-10-26T11:06:22.453Z,85.50
2023-10-26T11:08:49.440Z,92.63
2023-10-26T11:11:28.390Z,71.65
2023-10-26T11:14:13.517Z,79.80
2023-10-26T11:16:42.998Z,85.00
2023-10-26T11:19:10.133Z,78.22
2023-10-26T11:21:37.234Z,66.93
2023-10-26T11:24:04.911Z,78.95
2023-10-26T11:26:31.904Z,73.90
2023-10-26T11:29:19.297Z,72.70
2023-10-26T11:32:37.116Z,78.30
2023-10-26T11:35:17.771Z,72.93
2023-10-26T11:37:56.694Z,72.80
2023-10-26T11:40:31.903Z,71.90
2023-10-26T11:43:06.713Z,72.07
2023-10-26T11:46:03.347Z,72.00
2023-10-26T11:49:07.152Z,73.25
2023-10-26T11:52:08.457Z,78.03
2023-10-26T11:55:09.102Z,68.63
2023-10-26T11:58:10.151Z,69.20
2023-10-26T12:01:11.127Z,70.28
2023-10-26T12:04:12.122Z,74.90
2023-10-26T12:07:13.513Z,67.18
2023-10-26T12:09:54.020Z,75.35
2023-10-26T12:12:21.123Z,75.55
2023-10-26T12:14:48.947Z,63.35
2023-10-26T12:17:16.120Z,72.22
2023-10-26T12:19:43.303Z,67.05
2023-10-26T12:22:10.663Z,67.32
2023-10-26T12:24:37.706Z,78.97
2023-10-26T12:27:04.972Z,65.05
2023-10-26T12:29:52.157Z,66.90
2023-10-26T12:32:53.189Z,62.45
2023-10-26T12:35:29.396Z,75.13
2023-10-26T12:37:56.515Z,74.93
2023-10-26T12:40:23.618Z,76.05
2023-10-26T12:42:58.935Z,75.95
2023-10-26T12:45:46.193Z,67.30
2023-10-26T12:48:47.163Z,73.18
2023-10-26T12:51:48.269Z,77.72
2023-10-26T12:54:49.194Z,73.82
2023-10-26T12:57:51.188Z,75.63
2023-10-26T13:00:53.263Z,70.63
2023-10-26T13:03:56.598Z,73.43
2023-10-26T13:06:59.327Z,69.93
2023-10-26T13:09:42.515Z,75.22
2023-10-26T13:12:10.536Z,73.45
2023-10-26T13:14:38.284Z,80.53
2023-10-26T13:17:06.423Z,78.80
2023-10-26T13:19:33.568Z,73.85
2023-10-26T13:22:00.972Z,66.65
2023-10-26T13:24:28.415Z,69.05
2023-10-26T13:26:55.595Z,64.63
2023-10-26T13:29:51.245Z,72.65
2023-10-26T13:32:52.229Z,75.90
2023-10-26T13:35:31.408Z,71.70
2023-10-26T13:37:58.505Z,73.47
2023-10-26T13:40:25.936Z,78.10
2023-10-26T13:42:53.197Z,72.40
2023-10-26T13:45:20.461Z,71.47
2023-10-26T13:48:08.183Z,68.22
2023-10-26T13:51:02.310Z,68.95
2023-10-26T13:53:57.183Z,66.47
2023-10-26T13:56:58.178Z,62.88
2023-10-26T13:59:59.167Z,76.25
2023-10-26T14:03:06.288Z,72.43
2023-10-26T14:05:51.290Z,67.13
2023-10-26T14:08:18.812Z,63.33
2023-10-26T14:10:58.538Z,78.63
2023-10-26T14:13:25.455Z,73.78
2023-10-26T14:15:52.505Z,66.72
2023-10-26T14:18:19.779Z,66.20
2023-10-26T14:20:46.788Z,73.25
2023-10-26T14:23:13.788Z,65.38
2023-10-26T14:25:42.919Z,72.68
2023-10-26T14:28:10.088Z,57.65
2023-10-26T14:30:57.274Z,60.33
2023-10-26T14:33:37.901Z,72.38
2023-10-26T14:36:07.214Z,68.55
2023-10-26T14:38:34.519Z,61.28
2023-10-26T14:41:02.170Z,71.70
2023-10-26T14:43:29.633Z,73.18
2023-10-26T14:45:56.797Z,80.72
2023-10-26T14:48:44.321Z,69.80
2023-10-26T14:51:45.232Z,72.50
2023-10-26T14:54:25.835Z,72.70
2023-10-26T14:57:13.606Z,81.13
2023-10-26T15:00:15.234Z,83.07
2023-10-26T15:03:16.238Z,78.60
2023-10-26T15:06:17.220Z,79.07
2023-10-26T15:10:20.669Z,84.57
2023-10-26T15:12:31.175Z,83.50
2023-10-26T15:14:58.875Z,86.50
2023-10-26T15:17:26.751Z,90.10
2023-10-26T15:19:54.385Z,90.03
2023-10-26T15:22:21.430Z,98.72
2023-10-26T15:24:48.878Z,83.15
2023-10-26T15:27:15.994Z,98.68
2023-10-26T15:30:03.297Z,80.45
2023-10-26T15:33:04.265Z,98.68
2023-10-26T15:35:32.099Z,84.80
2023-10-26T15:37:59.111Z,83.00
2023-10-26T15:40:30.174Z,102.20
2023-10-26T15:42:57.192Z,82.43
2023-10-26T15:45:24.438Z,94.15
2023-10-26T15:47:52.466Z,79.65
2023-10-26T15:50:19.467Z,87.00
2023-10-26T15:52:46.524Z,84.25
2023-10-26T15:55:33.299Z,92.10
2023-10-26T15:58:34.324Z,96.70
2023-10-26T16:01:35.353Z,96.25
2023-10-26T16:04:39.322Z,88.70
2023-10-26T16:07:40.334Z,88.20
2023-10-26T16:10:21.089Z,94.72
2023-10-26T16:12:50.775Z,90.55
2023-10-26T16:15:21.541Z,87.35
2023-10-26T16:17:48.835Z,80.90
2023-10-26T16:20:15.891Z,86.88
2023-10-26T16:22:43.884Z,85.88
2023-10-26T16:25:11.280Z,79.90
2023-10-26T16:27:38.369Z,82.32
2023-10-26T16:30:25.327Z,97.85
2023-10-26T16:33:06.197Z,105.78
2023-10-26T16:35:33.271Z,102.53
2023-10-26T16:38:00.391Z,105.53
2023-10-26T16:40:28.445Z,124.15
2023-10-26T16:42:55.511Z,121.18
2023-10-26T16:45:22.585Z,119.95
2023-10-26T16:47:55.857Z,127.20
2023-10-26T16:50:23.936Z,121.47
2023-10-26T16:52:51.671Z,135.55
2023-10-26T16:55:18.882Z,134.40
2023-10-26T16:57:46.000Z,126.03
2023-10-26T17:00:34.312Z,99.88
2023-10-26T17:03:35.676Z,103.18
2023-10-26T17:06:29.653Z,93.00
2023-10-26T17:09:30.311Z,91.80
2023-10-26T17:12:28.304Z,83.78
2023-10-26T17:18:18.292Z,81.50
2023-10-26T17:20:59.102Z,88.55
2023-10-26T17:23:26.241Z,79.28
2023-10-26T17:25:53.654Z,89.47
2023-10-26T17:28:20.564Z,90.65
2023-10-26T17:31:07.480Z,95.60
2023-10-26T17:34:08.364Z,80.93
2023-10-26T17:36:48.928Z,97.25
2023-10-26T17:39:16.015Z,92.47
2023-10-26T17:41:43.008Z,107.32
2023-10-26T17:44:09.945Z,99.07
2023-10-26T17:46:37.227Z,106.80
2023-10-26T17:49:04.400Z,100.72
2023-10-26T17:51:33.999Z,106.80
2023-10-26T17:54:05.532Z,115.43
2023-10-26T17:56:35.423Z,108.25
2023-10-26T17:59:26.603Z,120.20
2023-10-26T18:02:27.393Z,113.18
2023-10-26T18:05:28.379Z,120.72
2023-10-26T18:08:08.985Z,127.30
2023-10-26T18:10:36.004Z,136.40
2023-10-26T18:13:03.180Z,125.28
2023-10-26T18:15:50.741Z,120.30
2023-10-26T18:18:46.720Z,119.63
2023-10-26T18:21:40.445Z,127.15
2023-10-26T18:24:21.048Z,130.65
2023-10-26T18:26:48.132Z,125.05
2023-10-26T18:29:15.150Z,135.88
2023-10-26T18:31:43.521Z,128.25
2023-10-26T18:34:10.735Z,129.30
2023-10-26T18:36:40.321Z,128.52
2023-10-26T18:39:07.604Z,130.25
2023-10-26T18:41:34.798Z,124.68
2023-10-26T18:44:02.160Z,122.47
2023-10-26T18:46:29.294Z,135.68
2023-10-26T18:48:57.178Z,125.03
2023-10-26T18:51:24.530Z,120.05
2023-10-26T18:53:52.222Z,126.95
2023-10-26T18:56:22.646Z,120.82
2023-10-26T18:59:09.380Z,127.43
2023-10-26T19:02:10.410Z,128.02
2023-10-26T19:05:12.378Z,126.40
2023-10-26T19:07:53.569Z,123.30
2023-10-26T19:10:20.653Z,126.90
2023-10-26T19:12:52.939Z,132.73
2023-10-26T19:15:40.448Z,136.32
2023-10-26T19:18:40.031Z,141.18
2023-10-26T19:21:08.556Z,130.50
2023-10-26T19:23:35.723Z,133.70
2023-10-26T19:26:03.166Z,131.68
2023-10-26T19:28:31.171Z,149.35
2023-10-26T19:31:19.565Z,144.00
2023-10-26T19:34:20.896Z,136.85
2023-10-26T19:37:21.433Z,147.60
2023-10-26T19:40:06.429Z,139.48
2023-10-26T19:42:36.627Z,160.02
2023-10-26T19:45:09.364Z,141.95
2023-10-26T19:47:39.133Z,148.18
2023-10-26T19:50:08.390Z,145.00
2023-10-26T19:52:36.219Z,142.15
2023-10-26T19:55:04.284Z,143.15
2023-10-26T19:57:32.289Z,150.15
2023-10-26T20:00:23.423Z,137.80
2023-10-26T20:03:24.542Z,158.25
2023-10-26T20:06:26.537Z,153.73
2023-10-26T20:09:07.493Z,132.35
2023-10-26T20:11:34.601Z,129.23
2023-10-26T20:14:04.025Z,132.85
2023-10-26T20:16:51.728Z,146.07
2023-10-26T20:19:52.598Z,138.00
2023-10-26T20:22:53.476Z,151.73
2023-10-26T20:25:27.128Z,130.57
2023-10-26T20:27:54.636Z,125.18
2023-10-26T20:30:21.668Z,128.38
2023-10-26T20:32:50.052Z,122.60
2023-10-26T20:35:18.139Z,132.02
2023-10-26T20:37:45.111Z,123.53
2023-10-26T20:40:13.490Z,122.57
2023-10-26T20:42:44.268Z,113.13
2023-10-26T20:45:31.428Z,133.35
2023-10-26T20:48:32.785Z,119.75
2023-10-26T20:51:30.266Z,114.30
2023-10-26T20:53:57.217Z,109.55
2023-10-26T20:56:24.356Z,108.60
2023-10-26T20:59:11.444Z,124.25
2023-10-26T21:02:12.508Z,110.40
2023-10-26T21:05:13.479Z,113.05
2023-10-26T21:07:54.883Z,102.47
2023-10-26T21:10:22.395Z,100.95
2023-10-26T21:12:49.623Z,98.75
2023-10-26T21:15:36.555Z,101.10
2023-10-26T21:18:37.707Z,110.80
2023-10-26T21:21:08.229Z,104.53
2023-10-26T21:23:36.530Z,107.55
2023-10-26T21:26:08.233Z,104.55
2023-10-26T21:28:37.741Z,106.13
2023-10-26T21:31:04.892Z,109.20
2023-10-26T21:33:32.646Z,114.72
2023-10-26T21:35:59.901Z,111.40
2023-10-26T21:38:28.188Z,119.80
2023-10-26T21:40:55.317Z,119.50
2023-10-26T21:43:42.507Z,115.38
2023-10-26T21:46:33.645Z,120.43
2023-10-26T21:49:00.822Z,126.30
2023-10-26T21:51:27.827Z,121.90
2023-10-26T21:53:54.779Z,141.70
2023-10-26T21:56:21.815Z,112.78
2023-10-26T21:58:49.045Z,128.20
2023-10-26T22:01:16.155Z,122.55
2023-10-26T22:03:48.281Z,123.57
2023-10-26T22:06:19.595Z,114.05
2023-10-26T22:08:46.523Z,114.80
2023-10-26T22:11:13.465Z,110.78
2023-10-26T22:13:40.471Z,98.57
2023-10-26T22:16:27.645Z,127.40
2023-10-26T22:19:28.508Z,116.10
2023-10-26T22:22:29.520Z,117.63
2023-10-26T22:25:10.865Z,118.57
2023-10-26T22:27:37.833Z,121.05
2023-10-26T22:30:05.586Z,122.07
2023-10-26T22:32:32.694Z,104.90
2023-10-26T22:34:59.846Z,121.95
2023-10-26T22:37:26.829Z,100.65
2023-10-26T22:39:55.052Z,124.88
2023-10-26T22:42:42.862Z,131.52
2023-10-26T22:45:43.598Z,123.80
2023-10-26T22:48:25.017Z,145.35
2023-10-26T22:50:51.955Z,115.40
2023-10-26T22:53:19.040Z,116.35
2023-10-26T22:55:46.944Z,137.38
2023-10-26T22:58:13.962Z,114.50
2023-10-26T23:01:01.812Z,117.35
2023-10-26T23:04:02.603Z,119.68
2023-10-26T23:07:03.601Z,160.23
2023-10-26T23:09:44.234Z,131.80
2023-10-26T23:12:11.265Z,139.15
2023-10-26T23:14:58.597Z,129.65
2023-10-26T23:17:59.594Z,125.10
2023-10-26T23:20:40.120Z,124.38
2023-10-26T23:23:07.077Z,127.90
2023-10-26T23:25:41.705Z,123.53
2023-10-26T23:28:08.803Z,114.97
2023-10-26T23:30:36.730Z,112.10
2023-10-26T23:33:04.094Z,115.88
2023-10-26T23:35:32.247Z,96.20
2023-10-26T23:37:59.298Z,116.28
2023-10-26T23:40:26.331Z,105.78
2023-10-26T23:43:14.597Z,106.72
2023-10-26T23:46:15.603Z,117.95
2023-10-26T23:48:44.669Z,112.15
2023-10-26T23:51:11.730Z,104.57
2023-10-26T23:53:38.696Z,111.20
2023-10-26T23:56:05.967Z,103.32
2023-10-26T23:58:33.062Z,103.57
